createdAt,value
2022-08-25T00:01:14.195Z,90.60
2022-08-25T00:02:55.322Z,90.70
2022-08-25T00:04:29.991Z,90.60
2022-08-25T00:06:01.826Z,90.90
2022-08-25T00:07:35.115Z,90.90
2022-08-25T00:09:08.842Z,91.00
2022-08-25T00:10:42.347Z,90.90
2022-08-25T00:12:15.141Z,91.10
2022-08-25T00:13:50.665Z,91.30
2022-08-25T00:15:24.068Z,91.30
2022-08-25T00:16:58.508Z,91.10
2022-08-25T00:18:31.378Z,91.40
2022-08-25T00:20:04.855Z,91.30
2022-08-25T00:21:37.325Z,91.60
2022-08-25T00:23:10.077Z,91.50
2022-08-25T00:24:42.895Z,91.60
2022-08-25T00:26:16.727Z,91.50
2022-08-25T00:27:49.496Z,91.70
2022-08-25T00:29:22.859Z,91.80
2022-08-25T00:30:55.726Z,91.90
2022-08-25T00:32:29.955Z,91.80
2022-08-25T00:34:02.895Z,92.10
2022-08-25T00:35:36.278Z,92.20
2022-08-25T00:37:10.139Z,92.10
2022-08-25T00:38:44.398Z,92.30
2022-08-25T00:40:17.570Z,92.20
2022-08-25T00:41:51.272Z,92.40
2022-08-25T00:43:24.036Z,92.60
2022-08-25T00:44:58.091Z,92.50
2022-08-25T00:46:33.734Z,92.50
2022-08-25T00:48:08.279Z,92.60
2022-08-25T00:49:44.898Z,92.70
2022-08-25T00:51:21.926Z,92.90
2022-08-25T00:52:57.375Z,92.70
2022-08-25T00:54:33.574Z,93.00
2022-08-25T00:56:06.592Z,93.00
2022-08-25T00:57:42.226Z,92.80
2022-08-25T00:59:17.540Z,92.90
2022-08-25T01:00:52.889Z,92.90
2022-08-25T01:02:26.018Z,93.00
2022-08-25T01:04:00.151Z,92.90
2022-08-25T01:05:33.309Z,93.10
2022-08-25T01:07:07.290Z,92.90
2022-08-25T01:08:48.745Z,92.80
2022-08-25T01:10:23.370Z,93.10
2022-08-25T01:11:56.646Z,93.10
2022-08-25T01:13:32.955Z,93.20
2022-08-25T01:15:09.115Z,93.40
2022-08-25T01:16:43.724Z,93.20
2022-08-25T01:18:16.269Z,93.30
2022-08-25T01:19:50.362Z,93.80
2022-08-25T01:21:28.267Z,93.60
2022-08-25T01:23:01.120Z,93.60
2022-08-25T01:24:39.572Z,93.70
2022-08-25T01:26:15.751Z,93.70
2022-08-25T01:27:48.495Z,93.60
2022-08-25T01:29:25.197Z,93.70
2022-08-25T01:30:58.169Z,93.80
2022-08-25T01:32:34.769Z,94.40
2022-08-25T01:34:09.482Z,94.30
2022-08-25T01:35:42.440Z,94.10
2022-08-25T01:37:19.087Z,94.30
2022-08-25T01:38:51.410Z,94.30
2022-08-25T01:40:24.367Z,94.20
2022-08-25T01:42:13.696Z,94.70
2022-08-25T01:43:46.541Z,94.90
2022-08-25T01:45:19.678Z,94.90
2022-08-25T01:46:52.839Z,94.80
2022-08-25T01:48:25.676Z,94.80
2022-08-25T01:49:58.424Z,95.00
2022-08-25T01:51:35.815Z,95.10
2022-08-25T01:53:18.404Z,95.00
2022-08-25T01:54:51.246Z,94.50
2022-08-25T01:56:24.019Z,94.40
2022-08-25T01:57:56.191Z,94.50
2022-08-25T01:59:29.024Z,94.40
2022-08-25T02:01:03.988Z,94.00
2022-08-25T02:02:36.802Z,94.30
2022-08-25T02:04:15.263Z,94.20
2022-08-25T02:05:48.718Z,94.00
2022-08-25T02:07:22.080Z,93.60
2022-08-25T02:08:58.602Z,93.70
2022-08-25T02:10:32.854Z,93.40
2022-08-25T02:12:06.094Z,93.90
2022-08-25T02:13:40.367Z,94.20
2022-08-25T02:15:14.481Z,94.30
2022-08-25T02:16:50.805Z,94.70
2022-08-25T02:18:24.011Z,94.80
2022-08-25T02:19:57.223Z,94.90
2022-08-25T02:21:30.014Z,95.20
2022-08-25T02:23:02.010Z,94.70
2022-08-25T02:24:36.323Z,95.00
2022-08-25T02:26:08.695Z,94.80
2022-08-25T02:27:41.436Z,94.30
2022-08-25T02:29:14.707Z,94.50
2022-08-25T02:30:48.040Z,95.30
2022-08-25T02:32:20.847Z,95.30
2022-08-25T02:33:53.904Z,96.40
2022-08-25T02:35:26.752Z,96.30
2022-08-25T02:36:59.601Z,96.60
2022-08-25T02:38:32.787Z,95.90
2022-08-25T02:40:08.820Z,96.60
2022-08-25T02:41:42.297Z,96.20
2022-08-25T02:43:15.215Z,96.00
2022-08-25T02:44:48.095Z,95.60
2022-08-25T02:46:23.357Z,95.30
2022-08-25T02:47:56.139Z,95.70
2022-08-25T02:49:28.975Z,95.10
2022-08-25T02:51:01.836Z,94.90
2022-08-25T02:52:35.251Z,95.10
2022-08-25T02:54:08.070Z,96.00
2022-08-25T02:55:42.175Z,95.70
2022-08-25T02:57:15.793Z,97.10
2022-08-25T02:58:49.050Z,97.30
2022-08-25T03:00:22.130Z,97.50
2022-08-25T03:01:56.100Z,98.10
2022-08-25T03:03:29.138Z,98.50
2022-08-25T03:05:02.012Z,99.00
2022-08-25T03:06:34.261Z,99.00
2022-08-25T03:08:08.507Z,99.40
2022-08-25T03:09:41.210Z,99.70
2022-08-25T03:11:15.362Z,99.90
2022-08-25T03:12:48.147Z,99.90
2022-08-25T03:14:19.974Z,99.90
2022-08-25T03:15:54.216Z,99.90
2022-08-25T03:17:26.972Z,99.90
2022-08-25T03:19:00.378Z,99.90
2022-08-25T03:20:33.286Z,99.90
2022-08-25T03:22:06.695Z,99.90
2022-08-25T03:23:39.443Z,99.90
2022-08-25T03:25:29.774Z,99.90
2022-08-25T03:27:04.883Z,99.90
2022-08-25T03:28:38.802Z,99.90
2022-08-25T03:30:13.129Z,99.90
2022-08-25T03:31:45.991Z,99.90
2022-08-25T03:33:18.773Z,99.90
2022-08-25T03:34:51.832Z,99.90
2022-08-25T03:36:24.800Z,99.90
2022-08-25T03:37:58.307Z,99.90
2022-08-25T03:39:31.034Z,99.90
2022-08-25T03:41:11.871Z,99.90
2022-08-25T03:42:46.677Z,99.90
2022-08-25T03:44:21.039Z,99.90
2022-08-25T03:45:53.937Z,99.90
2022-08-25T03:47:29.267Z,99.90
2022-08-25T03:49:02.055Z,99.90
2022-08-25T03:50:34.871Z,99.90
2022-08-25T03:52:06.654Z,99.90
2022-08-25T03:53:39.427Z,99.90
2022-08-25T03:55:15.375Z,99.90
2022-08-25T03:56:48.415Z,99.90
2022-08-25T03:58:22.526Z,99.90
2022-08-25T03:59:55.383Z,99.90
2022-08-25T04:01:28.443Z,99.90
2022-08-25T04:03:01.357Z,99.90
2022-08-25T04:04:35.035Z,99.90
2022-08-25T04:06:09.311Z,99.90
2022-08-25T04:07:42.308Z,99.90
2022-08-25T04:09:15.178Z,99.90
2022-08-25T04:10:48.662Z,99.90
2022-08-25T04:12:21.658Z,99.90
2022-08-25T04:13:58.503Z,99.90
2022-08-25T04:15:31.371Z,99.90
2022-08-25T04:17:05.064Z,99.90
2022-08-25T04:18:37.831Z,99.90
2022-08-25T04:20:14.255Z,99.90
2022-08-25T04:21:47.565Z,99.90
2022-08-25T04:23:20.406Z,99.90
2022-08-25T04:24:53.177Z,99.90
2022-08-25T04:26:32.159Z,99.90
2022-08-25T04:28:05.154Z,99.90
2022-08-25T04:29:39.611Z,99.90
2022-08-25T04:31:14.303Z,99.90
2022-08-25T04:32:48.225Z,99.90
2022-08-25T04:34:29.664Z,99.90
2022-08-25T04:36:05.160Z,99.90
2022-08-25T04:37:39.571Z,99.90
2022-08-25T04:39:11.506Z,99.90
2022-08-25T04:40:44.283Z,99.90
2022-08-25T04:42:17.039Z,99.90
2022-08-25T04:43:49.227Z,99.90
2022-08-25T04:45:23.423Z,99.90
2022-08-25T04:46:56.399Z,99.90
2022-08-25T04:48:29.211Z,99.90
2022-08-25T04:50:01.964Z,99.90
2022-08-25T04:51:37.586Z,99.90
2022-08-25T04:53:10.315Z,99.90
2022-08-25T04:54:43.697Z,99.90
2022-08-25T04:56:17.987Z,99.90
2022-08-25T04:57:50.839Z,99.90
2022-08-25T04:59:23.687Z,99.90
2022-08-25T05:01:08.165Z,99.90
2022-08-25T05:02:40.959Z,99.90
2022-08-25T05:04:28.147Z,99.90
2022-08-25T05:06:01.819Z,99.90
2022-08-25T05:07:34.603Z,99.90
2022-08-25T05:09:07.435Z,99.90
2022-08-25T05:10:43.072Z,99.90
2022-08-25T05:12:16.643Z,99.90
2022-08-25T05:13:51.801Z,99.90
2022-08-25T05:15:53.831Z,99.90
2022-08-25T05:17:27.917Z,99.90
2022-08-25T05:19:00.690Z,99.90
2022-08-25T05:20:36.699Z,99.90
2022-08-25T05:22:10.220Z,99.90
2022-08-25T05:23:42.986Z,99.90
2022-08-25T05:25:15.921Z,99.90
2022-08-25T05:26:48.723Z,99.90
2022-08-25T05:28:22.552Z,99.90
2022-08-25T05:29:55.295Z,99.90
2022-08-25T05:31:28.065Z,99.90
2022-08-25T05:33:03.084Z,99.90
2022-08-25T05:34:37.045Z,99.90
2022-08-25T05:36:11.215Z,99.90
2022-08-25T05:37:44.098Z,99.90
2022-08-25T05:39:16.885Z,99.90
2022-08-25T05:40:53.750Z,99.90
2022-08-25T05:42:27.074Z,99.90
2022-08-25T05:43:59.912Z,99.90
2022-08-25T05:45:32.753Z,99.90
2022-08-25T05:47:05.702Z,99.90
2022-08-25T05:48:40.595Z,99.90
2022-08-25T05:50:13.680Z,99.90
2022-08-25T05:51:46.432Z,99.90
2022-08-25T05:53:19.519Z,99.90
2022-08-25T05:54:52.284Z,99.90
2022-08-25T05:56:25.081Z,99.90
2022-08-25T05:57:57.858Z,99.90
2022-08-25T05:59:31.390Z,99.90
2022-08-25T06:01:19.093Z,99.90
2022-08-25T06:02:51.878Z,99.90
2022-08-25T06:04:25.131Z,99.90
2022-08-25T06:06:07.087Z,99.90
2022-08-25T06:07:39.839Z,99.90
2022-08-25T06:09:12.645Z,99.90
2022-08-25T06:10:46.781Z,99.90
2022-08-25T06:12:25.743Z,99.90
2022-08-25T06:13:58.476Z,99.90
2022-08-25T06:15:32.163Z,99.90
2022-08-25T06:17:07.425Z,99.90
2022-08-25T06:18:40.366Z,99.90
2022-08-25T06:20:16.839Z,99.90
2022-08-25T06:21:49.710Z,99.90
2022-08-25T06:23:22.450Z,99.90
2022-08-25T06:24:55.911Z,99.90
2022-08-25T06:26:28.741Z,99.90
2022-08-25T06:28:01.495Z,99.90
2022-08-25T06:29:34.448Z,99.90
2022-08-25T06:31:07.461Z,99.90
2022-08-25T06:32:42.703Z,99.90
2022-08-25T06:34:15.479Z,99.90
2022-08-25T06:35:49.572Z,99.90
2022-08-25T06:37:25.236Z,99.90
2022-08-25T06:38:58.243Z,99.90
2022-08-25T06:40:31.072Z,99.90
2022-08-25T06:42:04.080Z,99.90
2022-08-25T06:43:36.958Z,99.90
2022-08-25T06:45:10.775Z,99.90
2022-08-25T06:46:43.639Z,99.90
2022-08-25T06:48:16.877Z,99.90
2022-08-25T06:49:49.913Z,99.90
2022-08-25T06:51:26.354Z,99.90
2022-08-25T06:52:59.212Z,99.90
2022-08-25T06:54:32.098Z,99.90
2022-08-25T06:56:12.367Z,99.90
2022-08-25T06:57:45.151Z,99.90
2022-08-25T06:59:18.746Z,99.90
2022-08-25T07:00:51.628Z,99.90
2022-08-25T07:02:24.457Z,99.90
2022-08-25T07:03:59.846Z,99.90
2022-08-25T07:05:43.199Z,99.90
2022-08-25T07:07:18.086Z,99.90
2022-08-25T07:08:51.095Z,99.90
2022-08-25T07:10:24.296Z,99.90
2022-08-25T07:11:57.263Z,99.90
2022-08-25T07:13:31.994Z,99.90
2022-08-25T07:15:21.218Z,99.90
2022-08-25T07:16:54.056Z,99.90
2022-08-25T07:18:27.351Z,99.90
2022-08-25T07:20:00.100Z,99.90
2022-08-25T07:21:36.020Z,99.90
2022-08-25T07:27:43.072Z,99.90
2022-08-25T07:29:31.943Z,99.90
2022-08-25T07:31:06.304Z,99.90
2022-08-25T07:32:43.220Z,99.90
2022-08-25T07:34:34.625Z,99.90
2022-08-25T07:36:06.884Z,99.90
2022-08-25T07:37:49.170Z,99.90
2022-08-25T07:39:23.172Z,99.90
2022-08-25T07:41:03.219Z,99.90
2022-08-25T07:42:36.988Z,99.90
2022-08-25T07:44:13.811Z,99.90
2022-08-25T07:45:49.127Z,99.90
2022-08-25T07:47:23.160Z,99.90
2022-08-25T07:48:56.034Z,99.90
2022-08-25T07:50:31.363Z,99.90
2022-08-25T07:52:06.826Z,99.90
2022-08-25T07:53:41.117Z,99.90
2022-08-25T07:55:17.830Z,99.90
2022-08-25T07:56:51.501Z,99.90
2022-08-25T07:58:26.158Z,99.90
2022-08-25T08:00:01.227Z,99.90
2022-08-25T08:01:34.500Z,99.90
2022-08-25T08:03:19.800Z,99.90
2022-08-25T08:05:06.072Z,99.90
2022-08-25T08:06:43.644Z,99.90
2022-08-25T08:08:18.992Z,99.90
2022-08-25T08:10:11.950Z,99.90
2022-08-25T08:11:53.977Z,99.90
2022-08-25T08:13:27.543Z,99.90
2022-08-25T08:15:03.047Z,99.90
2022-08-25T08:16:37.352Z,99.90
2022-08-25T08:18:11.889Z,99.90
2022-08-25T08:19:46.339Z,99.90
2022-08-25T08:21:22.712Z,99.90
2022-08-25T08:22:56.090Z,99.90
2022-08-25T08:24:44.256Z,99.90
2022-08-25T08:26:36.493Z,99.90
2022-08-25T08:28:19.376Z,99.90
2022-08-25T08:29:53.808Z,99.90
2022-08-25T08:31:28.819Z,99.90
2022-08-25T08:33:11.852Z,99.90
2022-08-25T08:34:46.220Z,99.90
2022-08-25T08:36:19.909Z,99.90
2022-08-25T08:37:54.034Z,99.90
2022-08-25T08:39:28.797Z,99.90
2022-08-25T08:42:07.266Z,99.90
2022-08-25T08:43:33.980Z,99.90
2022-08-25T08:45:43.926Z,99.90
2022-08-25T08:47:30.060Z,99.90
2022-08-25T08:49:07.923Z,99.90
2022-08-25T08:50:51.430Z,99.90
2022-08-25T08:52:35.009Z,99.90
2022-08-25T08:54:15.413Z,99.90
2022-08-25T08:55:52.980Z,99.90
2022-08-25T08:57:30.308Z,99.90
2022-08-25T08:59:11.239Z,99.90
2022-08-25T09:00:52.232Z,99.90
2022-08-25T09:02:49.853Z,99.90
2022-08-25T09:04:30.581Z,99.90
2022-08-25T09:06:08.713Z,99.90
2022-08-25T09:07:48.318Z,99.90
2022-08-25T09:09:26.914Z,99.90
2022-08-25T09:14:44.522Z,99.40
2022-08-25T09:16:43.335Z,99.60
2022-08-25T09:18:26.864Z,97.70
2022-08-25T09:20:18.318Z,98.00
2022-08-25T09:22:02.950Z,97.70
2022-08-25T09:24:13.956Z,98.10
2022-08-25T09:25:59.172Z,97.70
2022-08-25T09:27:40.899Z,97.50
2022-08-25T09:29:17.244Z,98.30
2022-08-25T09:30:59.671Z,98.10
2022-08-25T09:32:36.840Z,98.60
2022-08-25T09:34:14.914Z,98.70
2022-08-25T09:35:49.968Z,98.70
2022-08-25T09:37:26.886Z,98.60
2022-08-25T09:39:01.980Z,98.60
2022-08-25T09:40:37.633Z,98.50
2022-08-25T09:42:10.643Z,98.00
2022-08-25T09:43:45.064Z,97.50
2022-08-25T09:45:34.195Z,97.90
2022-08-25T09:47:15.764Z,97.80
2022-08-25T09:48:55.840Z,97.60
2022-08-25T09:50:34.833Z,97.70
2022-08-25T09:52:33.228Z,97.90
2022-08-25T09:54:18.075Z,97.20
2022-08-25T09:56:00.318Z,97.40
2022-08-25T09:57:36.504Z,97.70
2022-08-25T09:59:34.297Z,97.90
2022-08-25T10:01:15.647Z,97.60
2022-08-25T10:03:06.428Z,97.70
2022-08-25T10:04:43.166Z,96.60
2022-08-25T10:06:21.331Z,96.40
2022-08-25T10:07:57.498Z,97.00
2022-08-25T10:09:34.940Z,97.30
2022-08-25T10:11:10.624Z,96.30
2022-08-25T10:12:51.133Z,95.90
2022-08-25T10:14:30.067Z,95.90
2022-08-25T10:16:20.462Z,95.50
2022-08-25T10:17:59.806Z,96.00
2022-08-25T10:19:33.128Z,95.30
2022-08-25T10:21:12.848Z,95.50
2022-08-25T10:22:50.585Z,94.70
2022-08-25T10:24:25.281Z,94.60
2022-08-25T10:26:03.718Z,95.60
2022-08-25T10:27:45.003Z,95.20
2022-08-25T10:29:34.524Z,94.90
2022-08-25T10:31:16.460Z,94.30
2022-08-25T10:33:06.586Z,94.50
2022-08-25T10:34:51.776Z,95.20
2022-08-25T10:36:34.829Z,94.10
2022-08-25T10:38:24.286Z,94.10
2022-08-25T10:40:12.184Z,93.60
2022-08-25T10:41:57.328Z,92.80
2022-08-25T10:43:37.211Z,92.30
2022-08-25T10:45:38.543Z,93.20
2022-08-25T10:47:36.087Z,93.70
2022-08-25T10:49:15.167Z,94.00
2022-08-25T10:50:53.787Z,94.10
2022-08-25T10:52:33.758Z,94.60
2022-08-25T10:54:19.243Z,94.70
2022-08-25T10:56:03.321Z,94.40
2022-08-25T10:57:48.641Z,94.50
2022-08-25T10:59:41.025Z,94.80
2022-08-25T11:01:28.852Z,94.70
2022-08-25T11:03:25.499Z,95.10
2022-08-25T11:05:06.758Z,95.20
2022-08-25T11:06:43.888Z,95.70
2022-08-25T11:08:22.398Z,96.00
2022-08-25T11:10:02.140Z,95.70
2022-08-25T11:11:42.622Z,95.10
2022-08-25T11:13:20.365Z,95.00
2022-08-25T11:14:57.259Z,94.30
2022-08-25T11:16:38.038Z,94.50
2022-08-25T11:18:14.992Z,94.10
2022-08-25T11:19:51.103Z,93.60
2022-08-25T11:21:31.159Z,93.80
2022-08-25T11:23:13.161Z,93.80
2022-08-25T11:25:01.116Z,93.60
2022-08-25T11:26:40.543Z,94.10
2022-08-25T11:28:19.138Z,94.00
2022-08-25T11:30:03.304Z,93.60
2022-08-25T11:31:41.548Z,93.40
2022-08-25T11:33:15.928Z,93.50
2022-08-25T11:34:48.918Z,94.00
2022-08-25T11:36:31.468Z,93.40
2022-08-25T11:38:20.771Z,93.20
2022-08-25T11:40:10.230Z,93.20
2022-08-25T11:42:03.246Z,92.90
2022-08-25T11:43:53.313Z,93.20
2022-08-25T11:45:56.675Z,93.00
2022-08-25T11:47:51.627Z,93.20
2022-08-25T11:49:42.338Z,93.50
2022-08-25T11:51:33.614Z,93.70
2022-08-25T11:53:28.081Z,93.10
2022-08-25T11:55:11.780Z,93.80
2022-08-25T11:56:56.901Z,93.30
2022-08-25T11:58:43.972Z,93.60
2022-08-25T12:00:37.443Z,93.60
2022-08-25T12:02:34.451Z,93.20
2022-08-25T12:04:17.245Z,93.60
2022-08-25T12:06:13.664Z,92.90
2022-08-25T12:08:19.768Z,92.60
2022-08-25T12:10:14.947Z,92.30
2022-08-25T12:11:57.984Z,92.00
2022-08-25T12:13:49.360Z,92.30
2022-08-25T12:15:26.048Z,92.80
2022-08-25T12:17:12.155Z,92.50
2022-08-25T12:18:50.460Z,92.40
2022-08-25T12:21:02.492Z,92.00
2022-08-25T12:22:55.976Z,91.60
2022-08-25T12:24:51.652Z,91.20
2022-08-25T12:26:37.514Z,91.80
2022-08-25T12:28:35.724Z,91.70
2022-08-25T12:30:18.621Z,92.10
2022-08-25T12:32:07.027Z,92.70
2022-08-25T12:33:53.512Z,91.90
2022-08-25T12:35:30.134Z,92.00
2022-08-25T12:37:11.648Z,92.30
2022-08-25T12:38:51.822Z,92.30
2022-08-25T12:40:30.153Z,92.30
2022-08-25T12:42:08.021Z,92.40
2022-08-25T12:43:43.286Z,92.10
2022-08-25T12:45:36.175Z,91.90
2022-08-25T12:47:27.078Z,91.90
2022-08-25T12:49:01.640Z,92.40
2022-08-25T12:50:41.064Z,92.60
2022-08-25T12:52:19.110Z,92.40
2022-08-25T12:53:54.924Z,92.60
2022-08-25T12:55:28.418Z,92.80
2022-08-25T12:57:18.104Z,92.60
2022-08-25T12:59:12.887Z,92.70
2022-08-25T13:01:07.558Z,92.90
2022-08-25T13:03:10.936Z,92.70
2022-08-25T13:05:15.883Z,92.50
2022-08-25T13:07:09.143Z,92.20
2022-08-25T13:09:17.576Z,92.20
2022-08-25T13:10:54.219Z,92.10
2022-08-25T13:12:35.286Z,92.40
2022-08-25T13:14:18.074Z,92.60
2022-08-25T13:16:00.727Z,92.70
2022-08-25T13:17:35.768Z,92.40
2022-08-25T13:19:19.317Z,92.40
2022-08-25T13:21:02.848Z,92.40
2022-08-25T13:22:36.612Z,92.40
2022-08-25T13:24:17.210Z,92.30
2022-08-25T13:25:52.184Z,92.40
2022-08-25T13:27:28.907Z,92.50
2022-08-25T13:29:08.615Z,92.50
2022-08-25T13:30:42.067Z,92.50
2022-08-25T13:32:18.045Z,92.50
2022-08-25T13:33:54.873Z,92.40
2022-08-25T13:35:32.712Z,92.20
2022-08-25T13:37:31.656Z,92.30
2022-08-25T13:39:17.036Z,92.20
2022-08-25T13:41:09.280Z,92.10
2022-08-25T13:42:53.057Z,92.20
2022-08-25T13:44:31.400Z,92.30
2022-08-25T13:46:06.369Z,92.40
2022-08-25T13:47:45.218Z,92.10
2022-08-25T13:49:27.460Z,92.20
2022-08-25T13:51:08.935Z,92.20
2022-08-25T13:52:48.499Z,92.30
2022-08-25T13:54:28.067Z,92.50
2022-08-25T13:56:04.475Z,92.60
2022-08-25T13:57:37.556Z,92.70
2022-08-25T13:59:25.148Z,92.40
2022-08-25T14:01:22.829Z,92.20
2022-08-25T14:03:12.785Z,92.80
2022-08-25T14:04:51.688Z,92.50
2022-08-25T14:06:27.935Z,92.20
2022-08-25T14:08:16.034Z,92.20
2022-08-25T14:09:55.584Z,92.30
2022-08-25T14:11:30.823Z,92.30
2022-08-25T14:13:17.056Z,92.40
2022-08-25T14:15:01.395Z,92.50
2022-08-25T14:16:39.702Z,92.30
2022-08-25T14:18:21.628Z,92.40
2022-08-25T14:20:00.367Z,92.10
2022-08-25T14:21:34.862Z,92.00
2022-08-25T14:23:18.849Z,92.10
2022-08-25T14:24:53.639Z,92.00
2022-08-25T14:26:26.990Z,92.10
2022-08-25T14:28:07.378Z,92.10
2022-08-25T14:29:52.643Z,92.10
2022-08-25T14:31:30.728Z,92.00
2022-08-25T14:33:06.875Z,92.00
2022-08-25T14:34:41.779Z,92.10
2022-08-25T14:36:14.727Z,92.00
2022-08-25T14:37:54.325Z,92.10
2022-08-25T14:39:28.033Z,91.90
2022-08-25T14:41:01.339Z,92.10
2022-08-25T14:42:34.360Z,92.00
2022-08-25T14:44:07.405Z,92.10
2022-08-25T14:45:43.885Z,92.10
2022-08-25T14:47:20.479Z,92.00
2022-08-25T14:48:56.809Z,92.00
2022-08-25T14:50:30.462Z,92.00
2022-08-25T14:52:09.098Z,91.90
2022-08-25T14:53:43.047Z,91.90
2022-08-25T14:55:17.422Z,92.00
2022-08-25T14:57:04.911Z,92.30
2022-08-25T14:58:50.928Z,92.10
2022-08-25T15:00:25.312Z,91.80
2022-08-25T15:01:58.817Z,91.70
2022-08-25T15:03:36.572Z,92.00
2022-08-25T15:05:12.544Z,92.10
2022-08-25T15:06:46.399Z,91.90
2022-08-25T15:08:37.047Z,91.90
2022-08-25T15:10:13.668Z,92.00
2022-08-25T15:11:50.603Z,92.10
2022-08-25T15:13:23.874Z,92.00
2022-08-25T15:14:57.411Z,91.80
2022-08-25T15:16:35.363Z,91.80
2022-08-25T15:18:08.968Z,91.80
2022-08-25T15:19:44.455Z,91.50
2022-08-25T15:21:19.086Z,91.50
2022-08-25T15:22:52.037Z,91.70
2022-08-25T15:24:25.563Z,91.90
2022-08-25T15:25:58.412Z,91.80
2022-08-25T15:27:31.395Z,91.80
2022-08-25T15:29:04.324Z,91.80
2022-08-25T15:30:37.853Z,91.90
2022-08-25T15:32:12.371Z,91.90
2022-08-25T15:33:45.285Z,91.90
2022-08-25T15:35:20.716Z,91.90
2022-08-25T15:36:53.902Z,91.80
2022-08-25T15:38:26.769Z,91.70
2022-08-25T15:39:59.701Z,91.80
2022-08-25T15:41:33.577Z,91.80
2022-08-25T15:43:06.949Z,91.70
2022-08-25T15:44:39.687Z,91.90
2022-08-25T15:46:16.806Z,91.90
2022-08-25T15:47:53.877Z,92.00
2022-08-25T15:49:29.709Z,91.80
2022-08-25T15:51:09.000Z,91.80
2022-08-25T15:52:46.477Z,91.70
2022-08-25T15:54:20.654Z,91.80
2022-08-25T15:55:54.205Z,91.90
2022-08-25T15:57:27.021Z,91.90
2022-08-25T15:59:05.131Z,92.20
2022-08-25T16:00:41.437Z,91.80
2022-08-25T16:02:14.828Z,91.80
2022-08-25T16:03:48.687Z,92.00
2022-08-25T16:05:25.654Z,91.90
2022-08-25T16:07:01.456Z,91.90
2022-08-25T16:08:34.544Z,91.70
2022-08-25T16:10:10.512Z,91.60
2022-08-25T16:11:43.932Z,91.60
2022-08-25T16:13:28.884Z,91.80
2022-08-25T16:15:01.699Z,91.60
2022-08-25T16:16:34.677Z,91.70
2022-08-25T16:18:08.359Z,91.70
2022-08-25T16:19:41.692Z,91.80
2022-08-25T16:21:16.851Z,91.70
2022-08-25T16:22:51.510Z,91.80
2022-08-25T16:24:24.872Z,91.80
2022-08-25T16:25:57.811Z,91.70
2022-08-25T16:27:38.670Z,91.70
2022-08-25T16:29:14.476Z,91.80
2022-08-25T16:30:52.808Z,91.70
2022-08-25T16:32:26.059Z,91.60
2022-08-25T16:33:59.041Z,91.80
2022-08-25T16:35:31.855Z,91.70
2022-08-25T16:37:05.527Z,91.70
2022-08-25T16:38:42.080Z,91.60
2022-08-25T16:40:24.402Z,91.70
2022-08-25T16:41:59.247Z,91.70
2022-08-25T16:43:32.055Z,91.70
2022-08-25T16:45:05.988Z,91.80
2022-08-25T16:46:42.091Z,91.80
2022-08-25T16:48:17.111Z,91.70
2022-08-25T16:49:50.801Z,91.70
2022-08-25T16:51:25.631Z,91.80
2022-08-25T16:53:22.324Z,91.80
2022-08-25T16:55:12.616Z,91.70
2022-08-25T16:56:45.421Z,91.70
2022-08-25T16:58:18.264Z,91.60
2022-08-25T16:59:52.140Z,91.70
2022-08-25T17:01:25.759Z,91.70
2022-08-25T17:03:00.649Z,91.90
2022-08-25T17:04:33.406Z,92.00
2022-08-25T17:06:07.240Z,92.00
2022-08-25T17:07:41.241Z,91.80
2022-08-25T17:09:17.413Z,91.80
2022-08-25T17:11:06.126Z,91.90
2022-08-25T17:12:42.633Z,91.80
2022-08-25T17:14:17.887Z,92.00
2022-08-25T17:15:52.432Z,91.80
2022-08-25T17:17:27.066Z,91.80
2022-08-25T17:19:01.868Z,91.80
2022-08-25T17:20:35.585Z,91.80
2022-08-25T17:22:13.741Z,91.80
2022-08-25T17:23:46.759Z,91.80
2022-08-25T17:25:19.780Z,91.80
2022-08-25T17:26:53.935Z,92.00
2022-08-25T17:28:27.553Z,91.90
2022-08-25T17:30:00.624Z,91.90
2022-08-25T17:31:34.974Z,91.90
2022-08-25T17:33:08.218Z,91.60
2022-08-25T17:34:41.023Z,91.70
2022-08-25T17:36:17.234Z,91.80
2022-08-25T17:37:50.517Z,91.90
2022-08-25T17:39:23.603Z,91.90
2022-08-25T17:40:58.111Z,91.40
2022-08-25T17:42:33.964Z,91.50
2022-08-25T17:44:07.151Z,91.50
2022-08-25T17:45:41.859Z,91.60
2022-08-25T17:47:15.980Z,91.70
2022-08-25T17:48:48.948Z,91.60
2022-08-25T17:50:21.869Z,91.50
2022-08-25T17:51:55.436Z,91.50
2022-08-25T17:53:29.508Z,91.60
2022-08-25T17:55:02.529Z,91.60
2022-08-25T17:56:35.579Z,91.70
2022-08-25T17:58:11.225Z,91.70
2022-08-25T17:59:44.171Z,91.70
2022-08-25T18:01:18.794Z,91.80
2022-08-25T18:02:51.663Z,91.80
2022-08-25T18:04:24.441Z,91.80
2022-08-25T18:06:02.428Z,91.80
2022-08-25T18:07:36.684Z,91.80
2022-08-25T18:09:09.603Z,91.80
2022-08-25T18:10:42.774Z,91.90
2022-08-25T18:12:15.539Z,91.90
2022-08-25T18:13:52.270Z,91.90
2022-08-25T18:15:25.947Z,92.00
2022-08-25T18:17:03.759Z,91.90
2022-08-25T18:18:38.553Z,92.00
2022-08-25T18:20:14.575Z,92.10
2022-08-25T18:21:47.581Z,92.00
2022-08-25T18:23:20.891Z,92.00
2022-08-25T18:24:53.672Z,92.00
2022-08-25T18:26:28.504Z,92.00
2022-08-25T18:28:01.357Z,92.00
2022-08-25T18:29:35.618Z,92.00
2022-08-25T18:31:07.900Z,92.00
2022-08-25T18:32:40.795Z,92.00
2022-08-25T18:34:14.569Z,92.10
2022-08-25T18:35:47.399Z,92.10
2022-08-25T18:37:38.884Z,92.10
2022-08-25T18:39:32.869Z,92.10
2022-08-25T18:41:08.785Z,92.20
2022-08-25T18:42:41.611Z,92.20
2022-08-25T18:44:15.642Z,92.20
2022-08-25T18:45:50.004Z,92.30
2022-08-25T18:47:22.768Z,92.40
2022-08-25T18:48:55.534Z,92.40
2022-08-25T18:50:33.709Z,92.50
2022-08-25T18:52:07.502Z,92.50
2022-08-25T18:53:50.349Z,92.60
2022-08-25T18:55:25.302Z,92.70
2022-08-25T18:56:58.063Z,92.80
2022-08-25T18:58:31.196Z,92.80
2022-08-25T19:00:05.144Z,92.90
2022-08-25T19:01:39.373Z,92.90
2022-08-25T19:03:14.504Z,92.90
2022-08-25T19:04:51.868Z,93.10
2022-08-25T19:06:24.701Z,93.10
2022-08-25T19:07:57.531Z,93.10
2022-08-25T19:09:31.900Z,93.20
2022-08-25T19:11:05.433Z,93.30
2022-08-25T19:12:40.639Z,93.20
2022-08-25T19:14:14.205Z,93.20
2022-08-25T19:15:47.254Z,93.40
2022-08-25T19:17:24.738Z,93.30
2022-08-25T19:18:58.434Z,93.30
2022-08-25T19:20:32.001Z,93.40
2022-08-25T19:22:06.736Z,93.40
2022-08-25T19:23:46.896Z,93.50
2022-08-25T19:25:20.952Z,93.50
2022-08-25T19:26:54.999Z,93.50
2022-08-25T19:28:28.255Z,93.50
2022-08-25T19:30:01.108Z,93.60
2022-08-25T19:31:35.052Z,93.60
2022-08-25T19:33:11.781Z,93.60
2022-08-25T19:34:47.455Z,93.70
2022-08-25T19:36:28.154Z,93.70
2022-08-25T19:38:03.460Z,93.70
2022-08-25T19:39:42.185Z,93.70
2022-08-25T19:41:27.544Z,93.80
2022-08-25T19:43:01.007Z,93.70
2022-08-25T19:44:34.207Z,93.70
2022-08-25T19:46:08.497Z,93.70
2022-08-25T19:47:41.459Z,93.80
2022-08-25T19:49:18.205Z,93.80
2022-08-25T19:50:55.935Z,93.80
2022-08-25T19:52:29.070Z,93.90
2022-08-25T19:54:03.080Z,93.90
2022-08-25T19:55:36.536Z,94.00
2022-08-25T19:57:11.736Z,93.90
2022-08-25T19:58:44.536Z,94.00
2022-08-25T20:00:21.276Z,94.00
2022-08-25T20:01:54.262Z,94.10
2022-08-25T20:03:27.107Z,94.10
2022-08-25T20:05:03.324Z,94.10
2022-08-25T20:06:36.124Z,94.20
2022-08-25T20:08:09.004Z,94.60
2022-08-25T20:09:42.383Z,94.30
2022-08-25T20:11:18.043Z,94.30
2022-08-25T20:12:51.607Z,94.30
2022-08-25T20:14:25.448Z,94.40
2022-08-25T20:15:58.852Z,94.40
2022-08-25T20:17:32.168Z,94.50
2022-08-25T20:19:06.811Z,94.40
2022-08-25T20:20:43.532Z,94.50
2022-08-25T20:22:18.137Z,94.50
2022-08-25T20:24:09.639Z,94.60
2022-08-25T20:25:43.883Z,94.50
2022-08-25T20:27:18.719Z,94.60
2022-08-25T20:28:51.548Z,94.60
2022-08-25T20:30:27.080Z,94.60
2022-08-25T20:31:59.920Z,94.60
2022-08-25T20:33:32.733Z,94.70
2022-08-25T20:35:09.158Z,94.70
2022-08-25T20:36:50.274Z,94.70
2022-08-25T20:38:23.279Z,94.70
2022-08-25T20:39:56.098Z,94.80
2022-08-25T20:41:28.945Z,94.70
2022-08-25T20:43:03.214Z,94.80
2022-08-25T20:44:41.799Z,94.90
2022-08-25T20:46:16.183Z,94.80
2022-08-25T20:47:50.061Z,94.90
2022-08-25T20:49:26.629Z,94.90
2022-08-25T20:50:59.477Z,94.90
2022-08-25T20:52:34.091Z,94.90
2022-08-25T20:54:08.520Z,94.90
2022-08-25T20:55:43.673Z,94.90
2022-08-25T20:57:16.711Z,94.80
2022-08-25T20:58:49.689Z,94.90
2022-08-25T21:00:23.573Z,95.00
2022-08-25T21:01:58.451Z,95.00